createdAt,value
2018-05-07T00:00:09.077Z,0
2018-05-07T00:01:30.558Z,0
2018-05-07T00:02:31.937Z,0
2018-05-07T00:03:53.425Z,0
2018-05-07T00:04:54.794Z,0
2018-05-07T00:06:16.375Z,0
2018-05-07T00:07:17.663Z,0
2018-05-07T00:08:39.210Z,0
2018-05-07T00:09:40.483Z,0
2018-05-07T00:11:01.938Z,0
2018-05-07T00:12:03.330Z,0
2018-05-07T00:13:24.826Z,0
2018-05-07T00:14:26.210Z,0
2018-05-07T00:15:47.686Z,0
2018-05-07T00:16:49.072Z,0
2018-05-07T00:18:10.538Z,0
2018-05-07T00:19:11.930Z,0
2018-05-07T00:20:33.488Z,0
2018-05-07T00:21:34.802Z,0
2018-05-07T00:22:56.275Z,0
2018-05-07T00:23:57.659Z,0
2018-05-07T00:25:19.138Z,0
2018-05-07T00:26:20.525Z,0
2018-05-07T00:27:42.017Z,0
2018-05-07T00:28:43.394Z,0
2018-05-07T00:30:04.867Z,0
2018-05-07T00:31:06.255Z,0
2018-05-07T00:32:27.722Z,0
2018-05-07T00:33:29.114Z,0
2018-05-07T00:34:50.610Z,0
2018-05-07T00:35:51.995Z,0
2018-05-07T00:37:13.467Z,0
2018-05-07T00:38:14.859Z,0
2018-05-07T00:39:36.331Z,0
2018-05-07T00:40:37.720Z,0
2018-05-07T00:41:59.203Z,0
2018-05-07T00:43:00.587Z,0
2018-05-07T00:44:22.067Z,0
2018-05-07T00:45:23.450Z,0
2018-05-07T00:46:44.923Z,0
2018-05-07T00:47:46.307Z,0
2018-05-07T00:49:07.803Z,0
2018-05-07T00:50:09.188Z,0
2018-05-07T00:51:30.659Z,0
2018-05-07T00:52:32.043Z,0
2018-05-07T00:53:53.515Z,0
2018-05-07T00:54:54.899Z,0
2018-05-07T00:56:16.387Z,0
2018-05-07T00:57:17.771Z,0
2018-05-07T00:58:39.245Z,0
2018-05-07T00:59:40.635Z,0
2018-05-07T01:01:02.108Z,0
2018-05-07T01:02:03.491Z,0
2018-05-07T01:03:24.987Z,0
2018-05-07T01:04:26.373Z,0
2018-05-07T01:05:47.844Z,0
2018-05-07T01:06:49.228Z,0
2018-05-07T01:08:10.700Z,0
2018-05-07T01:09:12.092Z,0
2018-05-07T01:10:33.589Z,0
2018-05-07T01:11:34.972Z,0
2018-05-07T01:12:56.444Z,0
2018-05-07T01:13:57.828Z,0
2018-05-07T01:15:19.300Z,0
2018-05-07T01:16:20.686Z,0
2018-05-07T01:17:42.180Z,0
2018-05-07T01:18:43.564Z,0
2018-05-07T01:20:05.037Z,0
2018-05-07T01:21:06.420Z,0
2018-05-07T01:22:27.900Z,0
2018-05-07T01:23:29.284Z,0
2018-05-07T01:24:50.773Z,0
2018-05-07T01:25:52.147Z,0
2018-05-07T01:27:13.620Z,0
2018-05-07T01:28:15.004Z,0
2018-05-07T01:29:36.498Z,0
2018-05-07T01:30:37.876Z,0
2018-05-07T01:31:59.364Z,0
2018-05-07T01:33:00.748Z,0
2018-05-07T01:34:22.228Z,0
2018-05-07T01:35:23.612Z,0
2018-05-07T01:36:45.093Z,0
2018-05-07T01:37:46.476Z,0
2018-05-07T01:39:07.957Z,0
2018-05-07T01:40:09.348Z,0
2018-05-07T01:41:30.820Z,0
2018-05-07T01:42:32.204Z,0
2018-05-07T01:43:53.676Z,0
2018-05-07T01:44:55.061Z,0
2018-05-07T01:46:16.549Z,0
2018-05-07T01:47:17.933Z,0
2018-05-07T01:48:39.405Z,0
2018-05-07T01:49:40.789Z,0
2018-05-07T01:51:02.261Z,0
2018-05-07T01:52:03.644Z,0
2018-05-07T01:53:25.141Z,0
2018-05-07T01:54:26.524Z,0
2018-05-07T01:55:47.997Z,0
2018-05-07T01:56:49.381Z,0
2018-05-07T01:58:10.845Z,0
2018-05-07T01:59:12.245Z,0
2018-05-07T02:00:33.733Z,0
2018-05-07T02:01:35.117Z,0
2018-05-07T02:02:56.589Z,0
2018-05-07T02:03:57.973Z,0
2018-05-07T02:05:19.445Z,0
2018-05-07T02:06:20.829Z,0
2018-05-07T02:07:42.317Z,0
2018-05-07T02:08:43.701Z,0
2018-05-07T02:10:05.173Z,0
2018-05-07T02:11:06.558Z,0
2018-05-07T02:12:28.029Z,0
2018-05-07T02:13:29.421Z,0
2018-05-07T02:14:50.911Z,0
2018-05-07T02:15:52.294Z,0
2018-05-07T02:17:13.765Z,0
2018-05-07T02:18:15.149Z,0
2018-05-07T02:19:36.629Z,0
2018-05-07T02:20:38.022Z,0
2018-05-07T02:21:59.494Z,0
2018-05-07T02:23:00.878Z,0
2018-05-07T02:24:22.349Z,0
2018-05-07T02:25:23.733Z,0
2018-05-07T02:26:45.205Z,0
2018-05-07T02:27:46.590Z,0
2018-05-07T02:29:08.078Z,0
2018-05-07T02:30:09.470Z,0
2018-05-07T02:31:30.950Z,0
2018-05-07T02:32:32.333Z,0
2018-05-07T02:33:53.806Z,0
2018-05-07T02:34:55.190Z,0
2018-05-07T02:36:16.688Z,0
2018-05-07T02:37:18.070Z,0
2018-05-07T02:38:39.541Z,0
2018-05-07T02:39:40.926Z,0
2018-05-07T02:41:02.400Z,0
2018-05-07T02:42:03.782Z,0
2018-05-07T02:43:25.278Z,0
2018-05-07T02:44:26.662Z,0
2018-05-07T02:45:48.142Z,0
2018-05-07T02:46:49.526Z,0
2018-05-07T02:48:10.998Z,0
2018-05-07T02:49:12.382Z,0
2018-05-07T02:50:33.870Z,0
2018-05-07T02:51:35.254Z,0
2018-05-07T02:52:56.726Z,0
2018-05-07T02:53:58.110Z,0
2018-05-07T02:55:19.582Z,0
2018-05-07T02:56:20.966Z,0
2018-05-07T02:57:42.462Z,0
2018-05-07T02:58:43.846Z,0
2018-05-07T03:00:05.318Z,0
2018-05-07T03:01:06.703Z,0
2018-05-07T03:02:28.175Z,0
2018-05-07T03:03:29.558Z,0
2018-05-07T03:04:51.046Z,0
2018-05-07T03:05:52.431Z,0
2018-05-07T03:07:13.903Z,0
2018-05-07T03:08:15.289Z,0
2018-05-07T03:09:36.759Z,0
2018-05-07T03:10:38.142Z,0
2018-05-07T03:11:59.723Z,0
2018-05-07T03:13:00.983Z,0
2018-05-07T03:14:22.454Z,0
2018-05-07T03:15:23.839Z,0
2018-05-07T03:16:45.311Z,0
2018-05-07T03:17:46.694Z,0
2018-05-07T03:19:08.190Z,0
2018-05-07T03:20:09.577Z,0
2018-05-07T03:21:31.048Z,0
2018-05-07T03:22:32.431Z,0
2018-05-07T03:23:53.913Z,0
2018-05-07T03:24:55.295Z,0
2018-05-07T03:26:16.782Z,0
2018-05-07T03:27:18.167Z,0
2018-05-07T03:28:39.639Z,0
2018-05-07T03:29:41.023Z,0
2018-05-07T03:31:02.495Z,0
2018-05-07T03:32:03.878Z,0
2018-05-07T03:33:25.366Z,4
2018-05-07T03:34:26.754Z,0
2018-05-07T03:35:48.223Z,0
2018-05-07T03:36:49.607Z,4
2018-05-07T03:38:11.079Z,4
2018-05-07T03:39:12.463Z,0
2018-05-07T03:40:34.020Z,4
2018-05-07T03:41:35.343Z,4
2018-05-07T03:42:56.815Z,4
2018-05-07T03:43:58.198Z,8
2018-05-07T03:45:19.671Z,4
2018-05-07T03:46:21.055Z,8
2018-05-07T03:47:42.544Z,8
2018-05-07T03:48:43.984Z,12
2018-05-07T03:50:05.401Z,12
2018-05-07T03:51:06.791Z,16
2018-05-07T03:52:28.274Z,16
2018-05-07T03:53:29.658Z,16
2018-05-07T03:54:51.151Z,20
2018-05-07T03:55:52.535Z,20
2018-05-07T03:57:14.008Z,24
2018-05-07T03:58:15.392Z,24
2018-05-07T03:59:36.920Z,28
2018-05-07T04:00:38.256Z,32
2018-05-07T04:01:59.745Z,28
2018-05-07T04:03:01.136Z,36
2018-05-07T04:04:22.624Z,40
2018-05-07T04:05:24.021Z,40
2018-05-07T04:06:45.488Z,44
2018-05-07T04:07:46.880Z,48
2018-05-07T04:09:08.376Z,48
2018-05-07T04:10:09.759Z,52
2018-05-07T04:11:31.239Z,52
2018-05-07T04:12:32.624Z,56
2018-05-07T04:13:54.096Z,60
2018-05-07T04:14:55.480Z,64
2018-05-07T04:16:16.977Z,68
2018-05-07T04:17:18.360Z,68
2018-05-07T04:18:39.840Z,76
2018-05-07T04:19:41.229Z,80
2018-05-07T04:21:02.705Z,80
2018-05-07T04:22:04.088Z,84
2018-05-07T04:23:25.604Z,124
2018-05-07T04:24:26.985Z,168
2018-05-07T04:25:48.466Z,224
2018-05-07T04:26:49.857Z,272
2018-05-07T04:28:11.336Z,304
2018-05-07T04:29:12.720Z,296
2018-05-07T04:30:34.208Z,320
2018-05-07T04:31:35.600Z,348
2018-05-07T04:32:57.082Z,360
2018-05-07T04:33:58.473Z,372
2018-05-07T04:35:19.952Z,392
2018-05-07T04:36:21.336Z,404
2018-05-07T04:37:42.841Z,408
2018-05-07T04:38:44.232Z,420
2018-05-07T04:40:05.713Z,428
2018-05-07T04:41:07.096Z,428
2018-05-07T04:42:28.577Z,436
2018-05-07T04:43:29.960Z,436
2018-05-07T04:44:51.449Z,436
2018-05-07T04:45:52.842Z,440
2018-05-07T04:47:14.321Z,436
2018-05-07T04:48:15.714Z,436
2018-05-07T04:49:37.184Z,420
2018-05-07T04:50:38.597Z,412
2018-05-07T04:52:00.073Z,404
2018-05-07T04:53:01.457Z,396
2018-05-07T04:54:22.945Z,384
2018-05-07T04:55:24.320Z,376
2018-05-07T04:56:45.800Z,360
2018-05-07T04:57:47.185Z,348
2018-05-07T04:59:08.681Z,324
2018-05-07T05:00:10.064Z,316
2018-05-07T05:01:31.537Z,308
2018-05-07T05:02:32.929Z,304
2018-05-07T05:03:54.409Z,304
2018-05-07T05:04:55.801Z,304
2018-05-07T05:06:17.319Z,304
2018-05-07T05:07:18.649Z,312
2018-05-07T05:08:40.154Z,316
2018-05-07T05:09:41.550Z,332
2018-05-07T05:11:03.028Z,372
2018-05-07T05:12:04.409Z,412
2018-05-07T05:13:25.905Z,444
2018-05-07T05:14:27.289Z,460
2018-05-07T05:15:48.769Z,488
2018-05-07T05:16:50.155Z,484
2018-05-07T05:18:11.633Z,476
2018-05-07T05:19:13.028Z,488
2018-05-07T05:20:34.514Z,496
2018-05-07T05:21:35.897Z,496
2018-05-07T05:22:57.377Z,492
2018-05-07T05:23:58.761Z,484
2018-05-07T05:25:20.234Z,484
2018-05-07T05:26:21.626Z,488
2018-05-07T05:27:43.212Z,488
2018-05-07T05:28:44.593Z,480
2018-05-07T05:30:06.074Z,472
2018-05-07T05:31:07.457Z,468
2018-05-07T05:32:28.938Z,472
2018-05-07T05:33:30.322Z,476
2018-05-07T05:34:51.818Z,484
2018-05-07T05:35:53.210Z,492
2018-05-07T05:37:14.702Z,496
2018-05-07T05:38:16.074Z,496
2018-05-07T05:39:37.547Z,496
2018-05-07T05:40:38.948Z,484
2018-05-07T05:42:00.445Z,476
2018-05-07T05:43:01.827Z,476
2018-05-07T05:44:23.306Z,500
2018-05-07T05:45:24.691Z,496
2018-05-07T05:46:46.163Z,484
2018-05-07T05:47:47.554Z,464
2018-05-07T05:49:09.043Z,444
2018-05-07T05:50:10.529Z,440
2018-05-07T05:51:31.866Z,440
2018-05-07T05:52:33.250Z,428
2018-05-07T05:53:54.716Z,412
2018-05-07T05:54:56.114Z,408
2018-05-07T05:56:17.647Z,412
2018-05-07T05:57:18.963Z,420
2018-05-07T05:58:40.443Z,416
2018-05-07T05:59:41.835Z,404
2018-05-07T06:01:03.308Z,376
2018-05-07T06:02:04.699Z,384
2018-05-07T06:03:26.195Z,400
2018-05-07T06:04:27.579Z,404
2018-05-07T06:05:49.059Z,432
2018-05-07T06:06:50.447Z,448
2018-05-07T06:08:11.915Z,428
2018-05-07T06:09:13.307Z,408
2018-05-07T06:10:34.796Z,400
2018-05-07T06:11:36.179Z,416
2018-05-07T06:12:57.659Z,456
2018-05-07T06:13:59.044Z,484
2018-05-07T06:15:20.523Z,448
2018-05-07T06:16:21.908Z,396
2018-05-07T06:17:43.404Z,356
2018-05-07T06:18:44.787Z,348
2018-05-07T06:20:06.267Z,328
2018-05-07T06:21:07.702Z,324
2018-05-07T06:22:29.131Z,324
2018-05-07T06:23:30.515Z,344
2018-05-07T06:24:52.013Z,352
2018-05-07T06:25:53.396Z,344
2018-05-07T06:27:14.905Z,336
2018-05-07T06:28:16.243Z,328
2018-05-07T06:29:37.727Z,312
2018-05-07T06:30:39.107Z,308
2018-05-07T06:32:00.604Z,304
2018-05-07T06:33:01.993Z,304
2018-05-07T06:34:23.480Z,300
2018-05-07T06:35:24.852Z,296
2018-05-07T06:36:46.332Z,308
2018-05-07T06:37:47.724Z,312
2018-05-07T06:39:09.235Z,304
2018-05-07T06:40:10.612Z,300
2018-05-07T06:41:32.092Z,300
2018-05-07T06:42:33.476Z,300
2018-05-07T06:43:55.010Z,300
2018-05-07T06:44:56.316Z,300
2018-05-07T06:46:17.899Z,304
2018-05-07T06:47:19.172Z,300
2018-05-07T06:48:40.658Z,308
2018-05-07T06:49:42.040Z,320
2018-05-07T06:51:03.509Z,320
2018-05-07T06:52:04.909Z,324
2018-05-07T06:53:26.407Z,344
2018-05-07T06:54:27.796Z,336
2018-05-07T06:55:49.280Z,328
2018-05-07T06:56:50.660Z,324
2018-05-07T06:58:12.132Z,320
2018-05-07T06:59:13.524Z,320
2018-05-07T07:00:35.013Z,324
2018-05-07T07:01:36.397Z,324
2018-05-07T07:02:57.902Z,320
2018-05-07T07:03:59.221Z,320
2018-05-07T07:05:20.701Z,320
2018-05-07T07:06:22.093Z,324
2018-05-07T07:07:43.581Z,324
2018-05-07T07:08:44.964Z,324
2018-05-07T07:10:06.653Z,328
2018-05-07T07:11:08.037Z,332
2018-05-07T07:12:29.509Z,336
2018-05-07T07:13:30.901Z,332
2018-05-07T07:14:52.397Z,332
2018-05-07T07:15:53.793Z,328
2018-05-07T07:17:15.261Z,328
2018-05-07T07:18:16.649Z,332
2018-05-07T07:19:38.117Z,332
2018-05-07T07:20:39.509Z,332
2018-05-07T07:22:01.014Z,344
2018-05-07T07:23:02.397Z,344
2018-05-07T07:24:23.870Z,348
2018-05-07T07:25:25.260Z,344
2018-05-07T07:26:46.741Z,344
2018-05-07T07:27:48.125Z,340
2018-05-07T07:29:09.633Z,340
2018-05-07T07:30:11.013Z,336
2018-05-07T07:31:32.492Z,336
2018-05-07T07:32:33.888Z,336
2018-05-07T07:33:55.408Z,340
2018-05-07T07:34:56.717Z,336
2018-05-07T07:36:18.215Z,336
2018-05-07T07:37:19.605Z,336
2018-05-07T07:38:41.077Z,336
2018-05-07T07:39:42.469Z,336
2018-05-07T07:41:03.947Z,336
2018-05-07T07:42:05.333Z,340
2018-05-07T07:43:26.973Z,340
2018-05-07T07:44:28.365Z,336
2018-05-07T07:45:49.837Z,340
2018-05-07T07:46:51.229Z,340
2018-05-07T07:48:12.709Z,340
2018-05-07T07:49:14.103Z,344
2018-05-07T07:50:35.609Z,344
2018-05-07T07:51:36.993Z,344
2018-05-07T07:52:58.470Z,344
2018-05-07T07:53:59.854Z,352
2018-05-07T07:55:21.325Z,348
2018-05-07T07:56:22.718Z,348
2018-05-07T07:57:44.222Z,348
2018-05-07T07:58:45.597Z,348
2018-05-07T08:00:07.069Z,348
2018-05-07T08:01:08.462Z,352
2018-05-07T08:02:29.934Z,352
2018-05-07T08:03:31.326Z,352
2018-05-07T08:04:52.822Z,352
2018-05-07T08:05:54.206Z,352
2018-05-07T08:07:15.686Z,356
2018-05-07T08:08:17.075Z,352
2018-05-07T08:09:38.550Z,356
2018-05-07T08:10:39.937Z,356
2018-05-07T08:12:01.500Z,356
2018-05-07T08:13:02.822Z,356
2018-05-07T08:14:24.305Z,360
2018-05-07T08:15:25.687Z,360
2018-05-07T08:16:47.166Z,364
2018-05-07T08:17:48.551Z,364
2018-05-07T08:19:10.047Z,368
2018-05-07T08:20:11.431Z,364
2018-05-07T08:21:32.910Z,368
2018-05-07T08:22:34.297Z,372
2018-05-07T08:23:55.774Z,372
2018-05-07T08:24:57.158Z,376
2018-05-07T08:26:18.646Z,380
2018-05-07T08:27:20.031Z,376
2018-05-07T08:28:41.503Z,380
2018-05-07T08:29:42.895Z,384
2018-05-07T08:31:04.367Z,384
2018-05-07T08:32:05.759Z,388
2018-05-07T08:33:27.263Z,392
2018-05-07T08:34:28.639Z,392
2018-05-07T08:35:50.207Z,396
2018-05-07T08:36:51.591Z,396
2018-05-07T08:38:13.071Z,400
2018-05-07T08:39:14.455Z,400
2018-05-07T08:40:35.963Z,404
2018-05-07T08:41:37.335Z,408
2018-05-07T08:42:58.815Z,412
2018-05-07T08:44:00.203Z,408
2018-05-07T08:45:21.671Z,416
2018-05-07T08:46:23.063Z,416
2018-05-07T08:47:44.552Z,420
2018-05-07T08:48:45.943Z,424
2018-05-07T08:50:07.431Z,424
2018-05-07T08:51:08.838Z,428
2018-05-07T08:52:30.288Z,428
2018-05-07T08:53:31.656Z,432
2018-05-07T08:54:53.152Z,436
2018-05-07T08:55:54.545Z,440
2018-05-07T08:57:16.024Z,444
2018-05-07T08:58:17.408Z,440
2018-05-07T08:59:38.888Z,448
2018-05-07T09:00:40.280Z,448
2018-05-07T09:02:01.854Z,448
2018-05-07T09:03:03.167Z,452
2018-05-07T09:04:24.648Z,456
2018-05-07T09:05:26.035Z,456
2018-05-07T09:06:47.512Z,460
2018-05-07T09:07:48.897Z,460
2018-05-07T09:09:10.392Z,464
2018-05-07T09:10:11.784Z,464
2018-05-07T09:11:33.276Z,468
2018-05-07T09:12:34.656Z,468
2018-05-07T09:13:56.136Z,472
2018-05-07T09:14:57.521Z,468
2018-05-07T09:16:19.019Z,472
2018-05-07T09:17:20.409Z,472
2018-05-07T09:18:41.880Z,476
2018-05-07T09:19:43.265Z,476
2018-05-07T09:21:04.744Z,476
2018-05-07T09:22:06.136Z,476
2018-05-07T09:23:27.627Z,480
2018-05-07T09:24:29.009Z,480
2018-05-07T09:25:50.492Z,484
2018-05-07T09:26:51.873Z,484
2018-05-07T09:28:13.346Z,484
2018-05-07T09:29:14.737Z,484
2018-05-07T09:30:36.232Z,484
2018-05-07T09:31:37.654Z,492
2018-05-07T09:32:59.056Z,488
2018-05-07T09:34:00.450Z,492
2018-05-07T09:35:21.929Z,492
2018-05-07T09:36:23.320Z,496
2018-05-07T09:37:44.817Z,496
2018-05-07T09:38:46.193Z,496
2018-05-07T09:40:07.673Z,500
2018-05-07T09:41:09.059Z,500
2018-05-07T09:42:30.537Z,504
2018-05-07T09:43:31.921Z,500
2018-05-07T09:44:53.420Z,504
2018-05-07T09:45:54.809Z,500
2018-05-07T09:47:16.291Z,504
2018-05-07T09:48:17.827Z,504
2018-05-07T09:49:39.201Z,508
2018-05-07T09:50:40.577Z,508
2018-05-07T09:52:02.074Z,512
2018-05-07T09:53:03.457Z,512
2018-05-07T09:54:24.946Z,512
2018-05-07T09:55:26.336Z,512
2018-05-07T09:56:47.856Z,520
2018-05-07T09:57:49.217Z,516
2018-05-07T09:59:10.729Z,520
2018-05-07T10:00:12.105Z,516
2018-05-07T10:01:33.601Z,520
2018-05-07T10:02:35.105Z,516
2018-05-07T10:03:56.433Z,516
2018-05-07T10:04:57.825Z,516
2018-05-07T10:06:19.321Z,520
2018-05-07T10:07:20.713Z,516
2018-05-07T10:08:42.197Z,520
2018-05-07T10:09:43.593Z,520
2018-05-07T10:11:05.065Z,520
2018-05-07T10:12:06.457Z,520
2018-05-07T10:13:28.109Z,524
2018-05-07T10:14:29.498Z,524
2018-05-07T10:15:50.978Z,524
2018-05-07T10:16:52.369Z,520
2018-05-07T10:18:13.849Z,528
2018-05-07T10:19:15.242Z,524
2018-05-07T10:20:36.729Z,528
2018-05-07T10:21:38.121Z,528
2018-05-07T10:22:59.610Z,528
2018-05-07T10:24:00.993Z,532
2018-05-07T10:25:22.474Z,536
2018-05-07T10:26:23.858Z,532
2018-05-07T10:27:45.353Z,532
2018-05-07T10:28:46.746Z,532
2018-05-07T10:30:08.225Z,532
2018-05-07T10:31:09.618Z,536
2018-05-07T10:32:31.093Z,536
2018-05-07T10:33:32.482Z,536
2018-05-07T10:34:53.981Z,532
2018-05-07T10:35:55.362Z,532
2018-05-07T10:37:16.836Z,536
2018-05-07T10:38:18.226Z,532
2018-05-07T10:39:39.706Z,540
2018-05-07T10:40:41.097Z,536
2018-05-07T10:42:02.598Z,532
2018-05-07T10:43:03.987Z,532
2018-05-07T10:44:25.471Z,532
2018-05-07T10:45:26.858Z,536
2018-05-07T10:46:48.338Z,536
2018-05-07T10:47:49.729Z,536
2018-05-07T10:49:11.294Z,540
2018-05-07T10:50:12.610Z,540
2018-05-07T10:51:34.082Z,540
2018-05-07T10:52:35.474Z,540
2018-05-07T10:53:56.962Z,540
2018-05-07T10:54:58.354Z,540
2018-05-07T10:56:19.853Z,540
2018-05-07T10:57:21.242Z,540
2018-05-07T10:58:42.722Z,540
2018-05-07T10:59:44.114Z,540
2018-05-07T11:01:05.597Z,536
2018-05-07T11:02:06.986Z,540
2018-05-07T11:03:28.481Z,536
2018-05-07T11:04:29.873Z,536
2018-05-07T11:05:51.356Z,536
2018-05-07T11:06:52.751Z,540
2018-05-07T11:08:14.226Z,536
2018-05-07T11:09:15.618Z,540
2018-05-07T11:10:37.218Z,536
2018-05-07T11:11:38.610Z,536
2018-05-07T11:13:00.091Z,536
2018-05-07T11:14:01.482Z,536
2018-05-07T11:15:22.962Z,536
2018-05-07T11:16:24.355Z,536
2018-05-07T11:17:45.859Z,536
2018-05-07T11:18:47.234Z,536
2018-05-07T11:20:08.730Z,532
2018-05-07T11:21:10.114Z,536
2018-05-07T11:22:31.594Z,532
2018-05-07T11:23:32.986Z,532
2018-05-07T11:24:54.491Z,532
2018-05-07T11:25:55.882Z,532
2018-05-07T11:27:17.363Z,532
2018-05-07T11:28:18.755Z,532
2018-05-07T11:29:40.235Z,528
2018-05-07T11:30:41.626Z,532
2018-05-07T11:32:03.123Z,528
2018-05-07T11:33:04.515Z,524
2018-05-07T11:34:25.995Z,528
2018-05-07T11:35:27.387Z,528
2018-05-07T11:36:48.859Z,528
2018-05-07T11:37:50.251Z,524
2018-05-07T11:39:11.795Z,528
2018-05-07T11:40:13.099Z,528
2018-05-07T11:41:34.587Z,524
2018-05-07T11:42:35.979Z,528
2018-05-07T11:43:57.459Z,532
2018-05-07T11:44:58.843Z,532
2018-05-07T11:46:20.331Z,528
2018-05-07T11:47:21.750Z,528
2018-05-07T11:48:43.203Z,524
2018-05-07T11:49:44.595Z,524
2018-05-07T11:51:06.075Z,524
2018-05-07T11:52:07.468Z,520
2018-05-07T11:53:28.963Z,520
2018-05-07T11:54:30.348Z,520
2018-05-07T11:55:51.830Z,516
2018-05-07T11:56:53.222Z,520
2018-05-07T11:58:14.699Z,520
2018-05-07T11:59:16.091Z,520
2018-05-07T12:00:37.595Z,524
2018-05-07T12:01:38.987Z,520
2018-05-07T12:03:00.471Z,524
2018-05-07T12:04:01.859Z,520
2018-05-07T12:05:23.339Z,524
2018-05-07T12:06:24.736Z,520
2018-05-07T12:07:46.231Z,520
2018-05-07T12:08:47.613Z,524
2018-05-07T12:10:09.087Z,524
2018-05-07T12:11:10.476Z,520
2018-05-07T12:12:31.956Z,520
2018-05-07T12:13:33.348Z,520
2018-05-07T12:14:54.836Z,516
2018-05-07T12:15:56.310Z,516
2018-05-07T12:17:17.661Z,516
2018-05-07T12:18:19.053Z,520
2018-05-07T12:19:40.532Z,520
2018-05-07T12:20:41.916Z,516
2018-05-07T12:22:03.404Z,520
2018-05-07T12:23:04.796Z,520
2018-05-07T12:24:26.282Z,520
2018-05-07T12:25:27.668Z,520
2018-05-07T12:26:49.149Z,516
2018-05-07T12:27:50.541Z,516
2018-05-07T12:29:12.029Z,516
2018-05-07T12:30:13.421Z,516
2018-05-07T12:31:34.913Z,516
2018-05-07T12:32:36.253Z,512
2018-05-07T12:33:57.732Z,520
2018-05-07T12:34:59.125Z,520
2018-05-07T12:36:20.621Z,516
2018-05-07T12:37:22.005Z,516
2018-05-07T12:38:43.485Z,516
2018-05-07T12:39:44.877Z,520
2018-05-07T12:41:06.359Z,516
2018-05-07T12:42:07.749Z,516
2018-05-07T12:43:29.245Z,520
2018-05-07T12:44:30.629Z,520
2018-05-07T12:45:52.110Z,516
2018-05-07T12:46:53.574Z,516
2018-05-07T12:48:14.941Z,516
2018-05-07T12:49:16.333Z,516
2018-05-07T12:50:37.821Z,516
2018-05-07T12:51:39.214Z,516
2018-05-07T12:53:00.693Z,516
2018-05-07T12:54:02.085Z,512
2018-05-07T12:55:23.565Z,508
2018-05-07T12:56:24.960Z,508
2018-05-07T12:57:46.454Z,508
2018-05-07T12:58:47.838Z,512
2018-05-07T13:00:09.318Z,512
2018-05-07T13:01:10.710Z,512
2018-05-07T13:02:32.193Z,516
2018-05-07T13:03:33.583Z,516
2018-05-07T13:04:55.071Z,512
2018-05-07T13:05:56.515Z,512
2018-05-07T13:07:17.950Z,508
2018-05-07T13:08:19.335Z,508
2018-05-07T13:09:40.813Z,508
2018-05-07T13:10:42.205Z,504
2018-05-07T13:12:03.694Z,504
2018-05-07T13:13:05.125Z,504
2018-05-07T13:14:26.530Z,504
2018-05-07T13:15:27.910Z,504
2018-05-07T13:16:49.390Z,500
2018-05-07T13:17:50.781Z,500
2018-05-07T13:19:12.286Z,500
2018-05-07T13:20:13.678Z,504
2018-05-07T13:21:35.166Z,500
2018-05-07T13:22:36.558Z,500
2018-05-07T13:23:58.154Z,500
2018-05-07T13:24:59.544Z,496
2018-05-07T13:26:21.038Z,492
2018-05-07T13:27:22.431Z,492
2018-05-07T13:28:43.911Z,492
2018-05-07T13:29:45.294Z,492
2018-05-07T13:31:07.007Z,488
2018-05-07T13:32:08.401Z,492
2018-05-07T13:33:29.943Z,488
2018-05-07T13:34:31.334Z,492
2018-05-07T13:35:53.902Z,492
2018-05-07T13:36:55.346Z,492
2018-05-07T13:38:16.702Z,492
2018-05-07T13:39:18.094Z,488
2018-05-07T13:40:39.590Z,488
2018-05-07T13:41:40.984Z,488
2018-05-07T13:43:02.462Z,484
2018-05-07T13:44:03.854Z,484
2018-05-07T13:45:25.534Z,488
2018-05-07T13:46:26.939Z,488
2018-05-07T13:47:48.430Z,488
2018-05-07T13:48:49.826Z,488
2018-05-07T13:50:11.303Z,488
2018-05-07T13:51:12.779Z,488
2018-05-07T13:52:34.478Z,488
2018-05-07T13:53:35.871Z,492
2018-05-07T13:54:57.390Z,488
2018-05-07T13:55:58.786Z,492
2018-05-07T13:57:20.287Z,488
2018-05-07T13:58:21.872Z,492
2018-05-07T13:59:43.350Z,488
2018-05-07T14:00:44.751Z,488
2018-05-07T14:02:06.247Z,488
2018-05-07T14:03:07.639Z,488
2018-05-07T14:04:29.742Z,492
2018-05-07T14:05:31.187Z,492
2018-05-07T14:06:53.023Z,492
2018-05-07T14:07:54.423Z,496
2018-05-07T14:09:15.911Z,492
2018-05-07T14:10:17.328Z,492
2018-05-07T14:11:38.779Z,492
2018-05-07T14:12:40.167Z,492
2018-05-07T14:14:01.648Z,492
2018-05-07T14:15:03.044Z,492
2018-05-07T14:16:24.536Z,496
2018-05-07T14:17:25.927Z,492
2018-05-07T14:18:47.483Z,496
2018-05-07T14:19:48.799Z,496
2018-05-07T14:21:10.280Z,496
2018-05-07T14:22:11.671Z,496
2018-05-07T14:23:33.159Z,496
2018-05-07T14:24:34.544Z,496
2018-05-07T14:25:56.024Z,496
2018-05-07T14:26:57.704Z,496
2018-05-07T14:28:19.187Z,500
2018-05-07T14:29:20.645Z,500
2018-05-07T14:30:42.177Z,500
2018-05-07T14:31:43.573Z,500
2018-05-07T14:33:05.052Z,496
2018-05-07T14:34:06.440Z,496
2018-05-07T14:35:27.919Z,496
2018-05-07T14:36:29.312Z,496
2018-05-07T14:37:50.800Z,500
2018-05-07T14:38:52.262Z,500
2018-05-07T14:40:13.647Z,500
2018-05-07T14:41:15.032Z,500
2018-05-07T14:42:36.513Z,500
2018-05-07T14:43:37.904Z,500
2018-05-07T14:44:59.399Z,500
2018-05-07T14:46:01.039Z,500
2018-05-07T14:47:22.519Z,496
2018-05-07T14:48:23.917Z,496
2018-05-07T14:49:45.395Z,500
2018-05-07T14:50:46.784Z,500
2018-05-07T14:52:08.272Z,500
2018-05-07T14:53:09.666Z,504
2018-05-07T14:54:31.136Z,496
2018-05-07T14:55:32.528Z,496
2018-05-07T14:56:54.008Z,496
2018-05-07T14:57:55.400Z,492
2018-05-07T14:59:19.257Z,496
